Time;durP1;ratioP1;P1;durP2;ratioP2;P2;SDS_P1;SDS_P2;PMS_P1;PMS_P2;Temp;Humidity;BMP_temperature;BMP_pressure;BME280_temperature;BME280_humidity;BME280_pressure;Samples;Min_cycle;Max_cycle;Signal;HPM_P1;HPM_P2
2023/09/17 00:18:10;;;;;;;17.10;12.70;;;;;;;15.69;78.89;98830.67;435155;1256;107931;-41
2023/09/17 00:28:17;;;;;;;18.90;13.40;;;;;;;15.66;78.96;98830.55;435195;1255;99952;-42
2023/09/17 00:38:24;;;;;;;19.70;13.70;;;;;;;15.58;79.37;98826.36;434917;1256;438163;-41
2023/09/17 00:58:38;;;;;;;15.90;12.50;;;;;;;15.53;79.88;98812.73;435111;1256;99340;-42
2023/09/17 01:08:46;;;;;;;16.10;12.50;;;;;;;15.55;80.24;98809.48;435192;1254;106948;-41
2023/09/17 01:18:53;;;;;;;16.50;12.30;;;;;;;15.54;80.43;98810.02;435293;1256;99938;-42
2023/09/17 01:28:59;;;;;;;17.30;12.50;;;;;;;15.60;80.75;98806.66;435197;1256;112050;-42
2023/09/17 01:49:18;;;;;;;20.50;12.50;;;;;;;15.68;81.57;98800.33;435984;1255;99240;-41
2023/09/17 02:09:28;;;;;;;20.20;13.40;;;;;;;15.76;81.92;98796.95;435114;1265;99230;-43
2023/09/17 02:19:35;;;;;;;21.20;13.80;;;;;;;15.84;81.87;98791.48;435196;1257;112015;-43
2023/09/17 02:29:42;;;;;;;18.30;13.10;;;;;;;15.84;81.97;98788.50;435022;1265;108330;-42
2023/09/17 02:39:47;;;;;;;18.50;13.50;;;;;;;15.86;82.10;98789.45;435123;1252;99250;-42
2023/09/17 02:49:53;;;;;;;21.30;15.30;;;;;;;15.81;82.26;98789.25;435185;1257;107139;-42
2023/09/17 02:59:59;;;;;;;23.60;16.60;;;;;;;15.78;82.30;98789.61;435150;1258;99250;-42
2023/09/17 03:10:10;;;;;;;20.60;14.60;;;;;;;15.70;82.51;98790.21;435241;1256;110961;-42
2023/09/17 03:30:24;;;;;;;21.70;14.80;;;;;;;15.54;83.10;98784.16;435185;1255;99228;-42
2023/09/17 03:40:29;;;;;;;23.00;14.20;;;;;;;15.49;82.89;98777.37;435222;1255;107619;-43
2023/09/17 03:50:38;;;;;;;21.30;14.70;;;;;;;15.32;82.92;98786.42;435115;1257;99292;-41
2023/09/17 04:10:49;;;;;;;23.70;13.90;;;;;;;15.09;84.02;98799.89;435132;1254;107477;-42
2023/09/17 04:31:02;;;;;;;23.90;16.30;;;;;;;14.95;84.26;98803.95;435330;1251;108008;-43
2023/09/17 04:41:08;;;;;;;24.80;17.20;;;;;;;14.90;84.40;98807.08;435201;1256;99343;-41
2023/09/17 04:51:16;;;;;;;28.10;18.90;;;;;;;14.93;84.94;98811.44;435185;1257;111632;-42
2023/09/17 05:01:22;;;;;;;24.70;17.30;;;;;;;15.02;85.13;98815.77;435230;1254;107266;-40
2023/09/17 05:11:29;;;;;;;28.50;18.30;;;;;;;15.19;85.48;98822.03;435229;1255;99228;-42
2023/09/17 05:31:40;;;;;;;30.90;16.80;;;;;;;15.50;85.83;98838.19;435145;1257;99220;-41
2023/09/17 05:41:45;;;;;;;25.60;15.20;;;;;;;15.64;85.71;98847.38;435154;1256;111683;-41
2023/09/17 05:51:52;;;;;;;20.50;16.10;;;;;;;15.77;85.68;98858.48;435210;1267;107715;-42
2023/09/17 06:12:04;;;;;;;20.30;15.30;;;;;;;16.07;86.18;98869.74;435163;1267;108115;-43
2023/09/17 06:22:11;;;;;;;18.50;15.40;;;;;;;16.16;86.29;98871.78;435208;1256;99318;-42
2023/09/17 06:42:24;;;;;;;20.20;15.50;;;;;;;16.61;86.38;98873.08;435237;1256;107211;-42
2023/09/17 06:52:30;;;;;;;16.50;13.50;;;;;;;16.88;86.61;98871.39;435225;1256;99244;-41
2023/09/17 07:02:37;;;;;;;17.80;15.00;;;;;;;17.20;86.61;98880.45;435160;1256;108220;-41
2023/09/17 07:12:43;;;;;;;19.40;13.80;;;;;;;17.58;86.47;98896.13;435141;1252;99250;-42
2023/09/17 07:22:49;;;;;;;15.20;12.90;;;;;;;18.09;86.38;98895.16;435137;1256;110988;-42
2023/09/17 07:32:56;;;;;;;16.10;14.10;;;;;;;18.79;86.03;98892.16;435203;1251;107774;-41
2023/09/17 07:43:04;;;;;;;14.30;11.40;;;;;;;19.39;85.26;98892.89;435303;1256;99215;-43
2023/09/17 07:53:09;;;;;;;12.50;10.90;;;;;;;20.39;84.79;98893.89;435255;1252;108120;-41
2023/09/17 08:13:21;;;;;;;9.60;8.60;;;;;;;22.26;82.02;98900.09;435255;1252;110956;-44
2023/09/17 08:23:28;;;;;;;10.70;8.50;;;;;;;23.15;80.60;98897.96;435256;1254;107545;-41
2023/09/17 08:33:35;;;;;;;7.60;6.30;;;;;;;23.79;78.34;98896.95;435236;1251;99570;-41
2023/09/17 08:43:41;;;;;;;6.60;5.90;;;;;;;23.94;75.97;98893.54;435071;1251;107848;-41
2023/09/17 08:53:45;;;;;;;5.40;4.70;;;;;;;24.19;73.56;98886.71;435240;1252;98815;-41
2023/09/17 09:03:52;;;;;;;4.10;3.80;;;;;;;24.39;71.60;98886.24;435276;1256;111471;-41
2023/09/17 09:14:00;;;;;;;3.80;3.50;;;;;;;24.90;70.90;98883.10;435064;1253;107683;-42
2023/09/17 09:24:05;;;;;;;6.10;3.30;;;;;;;24.44;68.64;98884.47;435297;1252;99269;-41
2023/09/17 09:34:16;;;;;;;6.10;4.20;;;;;;;24.40;68.45;98888.98;435226;1256;107763;-40
2023/09/17 09:44:25;;;;;;;5.60;4.40;;;;;;;24.42;68.58;98885.90;435240;1256;99218;-42
2023/09/17 10:04:40;;;;;;;6.40;5.10;;;;;;;24.93;66.38;98893.08;435124;1256;108123;-41
2023/09/17 10:14:47;;;;;;;9.00;4.70;;;;;;;24.55;65.78;98885.88;435297;1251;98337;-41
2023/09/17 10:24:55;;;;;;;4.40;4.10;;;;;;;24.64;65.69;98878.42;435277;1256;108080;-41
2023/09/17 10:35:03;;;;;;;4.80;4.40;;;;;;;24.96;65.57;98874.45;435224;1251;99292;-40
2023/09/17 10:55:17;;;;;;;5.00;3.70;;;;;;;25.27;61.13;98871.08;435266;1252;107435;-41
2023/09/17 11:15:33;;;;;;;4.00;3.50;;;;;;;25.49;59.04;98866.94;435293;1253;107868;-41
2023/09/17 11:25:40;;;;;;;4.70;4.20;;;;;;;25.78;59.53;98865.58;435174;1255;97969;-42
2023/09/17 11:35:46;;;;;;;6.40;4.00;;;;;;;25.74;59.82;98853.87;435361;1256;111097;-41
2023/09/17 11:45:54;;;;;;;4.40;4.10;;;;;;;25.82;59.41;98849.48;435266;1253;108075;-41
2023/09/17 11:56:03;;;;;;;4.60;4.20;;;;;;;25.69;58.52;98847.54;435291;1256;99211;-41
2023/09/17 12:06:09;;;;;;;4.30;3.30;;;;;;;25.70;58.93;98841.33;435197;1256;108023;-41
2023/09/17 12:16:12;;;;;;;4.60;3.60;;;;;;;25.79;58.10;98839.36;435148;1251;97959;-41
2023/09/17 12:26:30;;;;;;;8.50;4.00;;;;;;;25.58;56.84;98834.30;435384;1252;111061;-41
2023/09/17 12:46:42;;;;;;;7.20;4.40;;;;;;;25.74;56.79;98831.05;435091;1251;98676;-41
2023/09/17 12:56:48;;;;;;;6.60;3.40;;;;;;;25.83;56.88;98825.77;435116;1256;108087;-40
2023/09/17 13:16:59;;;;;;;4.00;3.70;;;;;;;25.43;55.40;98823.55;435351;1256;111801;-41
2023/09/17 13:27:04;;;;;;;4.10;3.80;;;;;;;25.29;56.05;98819.08;435161;1253;106632;-43
2023/09/17 13:37:09;;;;;;;4.50;4.10;;;;;;;25.01;56.14;98817.69;435212;1256;98824;-42
2023/09/17 13:47:15;;;;;;;4.80;4.40;;;;;;;24.84;56.60;98815.55;435101;1253;108015;-41
2023/09/17 13:57:23;;;;;;;8.20;3.90;;;;;;;24.74;57.01;98821.97;435281;1253;99228;-43
2023/09/17 14:07:32;;;;;;;8.10;4.20;;;;;;;24.71;57.21;98818.82;435322;1256;111803;-41
2023/09/17 14:27:43;;;;;;;6.30;4.40;;;;;;;24.81;57.32;98819.67;435261;1252;99294;-40
2023/09/17 14:37:50;;;;;;;6.30;3.60;;;;;;;24.88;57.83;98824.09;434996;1256;108247;-40
2023/09/17 15:18:12;;;;;;;4.20;3.90;;;;;;;24.46;57.01;98812.76;435211;1252;98412;-42
2023/09/17 15:59:33;;;;;;;6.40;4.10;;;;;;;23.98;57.72;98796.33;435241;1253;108246;-43
2023/09/17 16:09:39;;;;;;;4.60;4.10;;;;;;;23.82;57.97;98806.21;435101;1253;98856;-41
2023/09/17 16:19:52;;;;;;;5.60;4.30;;;;;;;23.64;58.44;98809.45;435142;1256;108603;-41
2023/09/17 16:29:58;;;;;;;5.40;3.60;;;;;;;23.42;58.67;98810.16;435251;1253;99243;-42
2023/09/17 17:00:15;;;;;;;8.20;4.30;;;;;;;22.60;60.48;98819.10;435345;1256;98047;-43
2023/09/17 17:10:22;;;;;;;8.90;5.30;;;;;;;22.26;60.92;98808.85;435022;1256;107398;-42
2023/09/17 17:20:28;;;;;;;11.10;4.80;;;;;;;21.88;61.70;98813.09;434952;1256;99253;-42
2023/09/17 17:30:34;;;;;;;7.00;5.30;;;;;;;21.55;62.43;98819.64;435118;1253;111324;-43
2023/09/17 17:40:39;;;;;;;12.20;6.40;;;;;;;21.16;63.15;98818.20;435183;1256;108017;-43
2023/09/17 18:00:52;;;;;;;8.20;5.50;;;;;;;20.47;64.17;98820.34;435008;1256;107573;-44
2023/09/17 18:41:13;;;;;;;12.80;8.50;;;;;;;19.96;66.47;98843.27;434993;1256;99228;-41
2023/09/17 18:51:20;;;;;;;14.80;9.70;;;;;;;19.84;66.97;98848.67;435157;1256;108449;-41
2023/09/17 19:11:35;;;;;;;;;;;;;;;19.48;68.45;98845.08;435119;1257;112198;-41
2023/09/17 19:21:41;;;;;;;12.50;10.50;;;;;;;19.32;69.17;98851.91;435083;1256;108287;-41
2023/09/17 19:31:48;;;;;;;13.40;9.20;;;;;;;19.26;69.35;98856.48;435066;1256;98084;-41
2023/09/17 19:41:55;;;;;;;13.20;9.60;;;;;;;19.14;69.91;98854.27;435106;1267;108088;-42
2023/09/17 19:52:00;;;;;;;15.70;10.50;;;;;;;19.01;70.66;98847.66;435019;1267;99221;-41
2023/09/17 20:02:06;;;;;;;13.50;11.50;;;;;;;18.88;71.38;98835.90;435098;1256;111974;-41
2023/09/17 20:12:13;;;;;;;17.00;12.60;;;;;;;18.64;72.14;98830.48;435192;1254;107453;-41
2023/09/17 20:22:18;;;;;;;14.70;11.90;;;;;;;18.45;72.73;98826.67;435060;1256;99352;-43
2023/09/17 20:32:25;;;;;;;15.80;11.60;;;;;;;18.28;73.46;98824.29;435044;1266;108680;-45
2023/09/17 20:52:35;;;;;;;15.50;11.60;;;;;;;18.11;74.31;98818.14;435046;1256;111689;-42
2023/09/17 21:02:40;;;;;;;17.30;12.10;;;;;;;17.98;74.72;98807.27;435042;1256;108349;-43
2023/09/17 21:12:45;;;;;;;17.30;11.90;;;;;;;17.94;75.25;98811.51;434993;1257;99250;-40
2023/09/17 21:22:51;;;;;;;20.10;13.90;;;;;;;17.84;75.13;98805.61;435069;1257;108134;-42
2023/09/17 21:32:56;;;;;;;18.90;16.00;;;;;;;17.58;75.98;98793.58;435224;1257;97988;-42
2023/09/17 21:43:03;;;;;;;21.50;13.00;;;;;;;17.40;76.81;98788.57;435030;1254;112083;-42
2023/09/17 21:53:08;;;;;;;16.50;12.10;;;;;;;17.46;76.97;98788.39;435083;1256;108199;-42
2023/09/17 22:03:16;;;;;;;16.90;12.10;;;;;;;17.47;76.97;98778.39;435097;1257;99871;-41
2023/09/17 22:13:22;;;;;;;14.30;11.60;;;;;;;17.35;77.44;98780.02;435074;1254;107654;-40
2023/09/17 22:23:27;;;;;;;18.30;12.30;;;;;;;17.26;77.84;98777.73;435149;1256;99224;-41
2023/09/17 22:33:32;;;;;;;19.40;11.20;;;;;;;17.17;77.96;98768.66;435116;1257;112277;-42
2023/09/17 22:43:38;;;;;;;16.30;10.50;;;;;;;17.05;78.24;98759.48;435007;1257;108175;-43
2023/09/17 23:03:50;;;;;;;17.20;11.70;;;;;;;16.87;78.93;98751.64;435206;1256;107716;-42
2023/09/17 23:13:56;;;;;;;16.70;11.10;;;;;;;16.74;79.41;98748.52;435143;1257;99241;-43
2023/09/17 23:34:06;;;;;;;11.80;9.70;;;;;;;16.65;80.20;98745.67;435359;1251;107455;-42
2023/09/17 23:44:13;;;;;;;12.60;8.70;;;;;;;16.65;80.29;98748.71;435287;1258;97969;-42
